createdAt,value
2023-03-12T00:02:21.288Z,14.15
2023-03-12T00:04:50.293Z,10.95
2023-03-12T00:07:16.826Z,10.02
2023-03-12T00:09:44.384Z,12.38
2023-03-12T00:12:10.727Z,12.10
2023-03-12T00:14:42.009Z,12.45
2023-03-12T00:17:08.532Z,14.35
2023-03-12T00:19:34.935Z,9.98
2023-03-12T00:22:01.356Z,10.23
2023-03-12T00:24:29.044Z,12.95
2023-03-12T00:26:56.523Z,6.78
2023-03-12T00:29:22.857Z,7.70
2023-03-12T00:31:49.315Z,6.70
2023-03-12T00:34:20.606Z,9.02
2023-03-12T00:36:51.763Z,9.98
2023-03-12T00:39:18.131Z,7.45
2023-03-12T00:41:44.499Z,8.75
2023-03-12T00:44:19.035Z,4.70
2023-03-12T00:46:48.554Z,4.70
2023-03-12T00:49:14.998Z,5.57
2023-03-12T00:51:41.389Z,5.07
2023-03-12T00:54:18.101Z,7.95
2023-03-12T00:56:44.535Z,6.05
2023-03-12T00:59:11.138Z,4.63
2023-03-12T01:01:39.793Z,6.38
2023-03-12T01:04:06.325Z,6.82
2023-03-12T01:06:32.818Z,6.35
2023-03-12T01:09:01.920Z,5.45
2023-03-12T01:11:28.731Z,5.18
2023-03-12T01:13:55.081Z,7.32
2023-03-12T01:16:21.636Z,7.53
2023-03-12T01:18:48.046Z,9.93
2023-03-12T01:21:17.152Z,7.43
2023-03-12T01:23:43.542Z,8.00
2023-03-12T01:26:10.622Z,7.07
2023-03-12T01:28:37.115Z,7.28
2023-03-12T01:31:12.294Z,6.47
2023-03-12T01:33:42.281Z,8.85
2023-03-12T01:36:24.622Z,6.68
2023-03-12T01:38:53.033Z,4.22
2023-03-12T01:41:23.693Z,7.70
2023-03-12T01:43:52.827Z,4.80
2023-03-12T01:46:31.598Z,7.75
2023-03-12T01:49:26.938Z,6.13
2023-03-12T01:52:24.492Z,4.18
2023-03-12T01:54:58.110Z,6.43
2023-03-12T01:57:46.293Z,5.15
2023-03-12T02:00:17.483Z,6.35
2023-03-12T02:02:46.029Z,6.78
2023-03-12T02:05:55.841Z,9.32
2023-03-12T02:08:23.835Z,9.40
2023-03-12T02:10:50.829Z,7.93
2023-03-12T02:13:18.563Z,9.07
2023-03-12T02:15:46.104Z,7.35
2023-03-12T02:18:17.791Z,9.77
2023-03-12T02:21:10.773Z,8.55
2023-03-12T02:23:55.577Z,9.27
2023-03-12T02:26:26.416Z,6.13
2023-03-12T02:31:34.876Z,4.28
2023-03-12T02:34:01.494Z,5.60
2023-03-12T02:36:30.233Z,5.93
2023-03-12T02:38:56.725Z,5.75
2023-03-12T02:41:34.104Z,7.15
2023-03-12T02:44:13.009Z,7.88
2023-03-12T02:46:49.006Z,5.07
2023-03-12T02:49:17.254Z,7.22
2023-03-12T02:51:45.702Z,6.30
2023-03-12T02:54:14.029Z,5.32
2023-03-12T02:56:41.422Z,5.40
2023-03-12T02:59:16.857Z,5.95
2023-03-12T03:01:44.126Z,5.45
2023-03-12T03:04:17.201Z,5.57
2023-03-12T03:06:44.270Z,6.13
2023-03-12T03:09:13.142Z,5.68
2023-03-12T03:11:39.683Z,3.88
2023-03-12T03:14:06.170Z,6.55
2023-03-12T03:16:34.877Z,5.93
2023-03-12T03:19:01.434Z,6.35
2023-03-12T03:21:27.920Z,5.88
2023-03-12T03:23:54.480Z,6.97
2023-03-12T03:26:22.329Z,6.45
2023-03-12T03:28:50.981Z,5.28
2023-03-12T03:31:18.200Z,5.85
2023-03-12T03:33:47.779Z,8.07
2023-03-12T03:36:14.314Z,5.00
2023-03-12T03:38:41.886Z,6.38
2023-03-12T03:41:15.508Z,6.13
2023-03-12T03:43:42.117Z,6.43
2023-03-12T03:46:14.467Z,6.72
2023-03-12T03:48:41.715Z,4.18
2023-03-12T03:51:09.585Z,6.45
2023-03-12T03:53:36.083Z,5.85
2023-03-12T03:56:09.372Z,5.68
2023-03-12T03:58:38.398Z,4.82
2023-03-12T04:01:05.130Z,4.55
2023-03-12T04:03:32.047Z,3.45
2023-03-12T04:06:04.585Z,5.18
2023-03-12T04:08:33.527Z,4.55
2023-03-12T04:11:00.103Z,4.68
2023-03-12T04:13:28.674Z,8.82
2023-03-12T04:15:55.525Z,6.47
2023-03-12T04:18:26.309Z,8.43
2023-03-12T04:20:54.148Z,5.00
2023-03-12T04:23:20.514Z,6.70
2023-03-12T04:25:48.697Z,5.13
2023-03-12T04:28:15.104Z,5.93
2023-03-12T04:30:43.731Z,7.70
2023-03-12T04:33:10.357Z,7.45
2023-03-12T04:35:39.742Z,6.57
2023-03-12T04:38:06.330Z,6.30
2023-03-12T04:40:32.781Z,5.72
2023-03-12T04:43:00.362Z,6.32
2023-03-12T04:45:35.171Z,5.07
2023-03-12T04:48:03.794Z,6.85
2023-03-12T04:50:30.230Z,11.52
2023-03-12T04:52:56.757Z,5.60
2023-03-12T04:55:23.247Z,8.75
2023-03-12T04:57:52.553Z,6.20
2023-03-12T05:00:21.929Z,8.52
2023-03-12T05:02:48.418Z,9.25
2023-03-12T05:05:14.838Z,7.30
2023-03-12T05:07:47.769Z,5.40
2023-03-12T05:10:14.238Z,7.80
2023-03-12T05:12:40.782Z,7.72
2023-03-12T05:15:07.922Z,7.75
2023-03-12T05:17:36.958Z,8.23
2023-03-12T05:20:04.031Z,10.40
2023-03-12T05:22:30.494Z,6.03
2023-03-12T05:24:57.018Z,5.65
2023-03-12T05:27:23.430Z,7.97
2023-03-12T05:29:49.978Z,7.05
2023-03-12T05:32:16.465Z,5.97
2023-03-12T05:34:42.832Z,8.82
2023-03-12T05:37:09.399Z,4.85
2023-03-12T05:39:35.881Z,7.35
2023-03-12T05:42:04.016Z,7.80
2023-03-12T05:44:33.202Z,7.25
2023-03-12T05:47:02.206Z,6.90
2023-03-12T05:49:32.934Z,7.45
2023-03-12T05:54:40.851Z,3.97
2023-03-12T05:57:07.874Z,5.13
2023-03-12T05:59:35.440Z,7.03
2023-03-12T06:02:01.918Z,5.00
2023-03-12T06:04:33.508Z,6.85
2023-03-12T06:07:02.946Z,8.80
2023-03-12T06:09:29.262Z,8.13
2023-03-12T06:11:55.687Z,5.93
2023-03-12T06:14:22.162Z,6.93
2023-03-12T06:16:48.553Z,10.43
2023-03-12T06:19:21.809Z,8.18
2023-03-12T06:21:52.136Z,8.13
2023-03-12T06:24:18.898Z,6.95
2023-03-12T06:26:45.291Z,6.32
2023-03-12T06:29:12.068Z,7.47
2023-03-12T06:31:44.749Z,10.35
2023-03-12T06:34:11.224Z,8.27
2023-03-12T06:36:38.054Z,11.60
2023-03-12T06:39:04.558Z,8.68
2023-03-12T06:41:33.640Z,9.60
2023-03-12T06:44:02.311Z,9.50
2023-03-12T06:46:31.177Z,12.18
2023-03-12T06:48:57.767Z,9.88
2023-03-12T06:54:13.722Z,10.77
2023-03-12T06:56:40.195Z,11.77
2023-03-12T06:59:06.787Z,14.20
2023-03-12T07:01:38.420Z,9.98
2023-03-12T07:04:04.891Z,12.07
2023-03-12T07:06:33.891Z,13.82
2023-03-12T07:09:00.360Z,12.00
2023-03-12T07:11:29.150Z,17.38
2023-03-12T07:13:55.564Z,11.60
2023-03-12T07:16:21.964Z,13.30
2023-03-12T07:18:48.436Z,16.23
2023-03-12T07:21:15.652Z,15.98
2023-03-12T07:23:42.212Z,16.55
2023-03-12T07:26:10.556Z,13.05
2023-03-12T07:28:37.119Z,14.60
2023-03-12T07:31:04.315Z,18.98
2023-03-12T07:33:31.102Z,14.10
2023-03-12T07:35:58.226Z,16.63
2023-03-12T07:38:27.349Z,13.40
2023-03-12T07:40:55.237Z,11.18
2023-03-12T07:43:22.659Z,17.08
2023-03-12T07:45:49.680Z,15.65
2023-03-12T07:48:19.026Z,17.50
2023-03-12T07:50:48.840Z,17.17
2023-03-12T07:53:16.247Z,13.68
2023-03-12T07:55:46.178Z,14.68
2023-03-12T07:58:12.930Z,19.50
2023-03-12T08:00:44.890Z,20.08
2023-03-12T08:03:12.155Z,17.08
2023-03-12T08:05:39.386Z,11.07
2023-03-12T08:08:10.585Z,12.20
2023-03-12T08:10:37.701Z,15.02
2023-03-12T08:13:04.310Z,16.45
2023-03-12T08:15:33.292Z,18.45
2023-03-12T08:17:59.678Z,11.80
2023-03-12T08:20:26.173Z,21.65
2023-03-12T08:22:59.464Z,15.90
2023-03-12T08:25:25.965Z,15.90
2023-03-12T08:27:55.751Z,17.38
2023-03-12T08:30:22.274Z,13.10
2023-03-12T08:32:48.767Z,9.80
2023-03-12T08:35:15.347Z,20.58
2023-03-12T08:37:41.752Z,17.63
2023-03-12T08:40:12.949Z,14.15
2023-03-12T08:42:44.309Z,20.10
2023-03-12T08:45:18.024Z,22.20
2023-03-12T08:47:44.462Z,19.98
2023-03-12T08:50:13.448Z,17.98
2023-03-12T08:52:41.283Z,21.15
2023-03-12T08:55:11.651Z,15.02
2023-03-12T08:57:39.772Z,20.35
2023-03-12T09:00:08.067Z,17.90
2023-03-12T09:02:35.994Z,20.35
2023-03-12T09:05:02.398Z,22.08
2023-03-12T09:07:32.417Z,19.85
2023-03-12T09:09:58.811Z,24.30
2023-03-12T09:12:25.646Z,28.98
2023-03-12T09:15:03.442Z,24.42
2023-03-12T09:17:31.360Z,21.75
2023-03-12T09:20:03.458Z,26.73
2023-03-12T09:22:30.660Z,28.48
2023-03-12T09:24:57.586Z,18.80
2023-03-12T09:27:28.222Z,23.15
2023-03-12T09:30:00.456Z,25.90
2023-03-12T09:32:31.097Z,24.13
2023-03-12T09:35:08.649Z,24.73
2023-03-12T09:37:35.361Z,25.73
2023-03-12T09:40:05.899Z,38.45
2023-03-12T09:45:13.498Z,26.10
2023-03-12T09:47:51.288Z,29.10
2023-03-12T09:50:33.569Z,25.27
2023-03-12T09:53:14.677Z,29.02
2023-03-12T09:55:47.480Z,29.60
2023-03-12T09:58:24.940Z,35.88
2023-03-12T10:01:00.950Z,25.67
2023-03-12T10:03:44.338Z,27.42
2023-03-12T10:06:16.942Z,28.25
2023-03-12T10:09:20.147Z,35.22
2023-03-12T10:12:05.981Z,27.67
2023-03-12T10:14:55.567Z,42.20
2023-03-12T10:18:02.948Z,63.60
2023-03-12T10:20:48.145Z,26.85
2023-03-12T10:23:32.892Z,36.60
2023-03-12T10:26:10.471Z,35.70
2023-03-12T10:28:39.607Z,60.15
2023-03-12T10:31:21.592Z,37.60
2023-03-12T10:33:55.808Z,34.40
2023-03-12T10:36:43.100Z,35.72
2023-03-12T10:39:18.662Z,30.67
2023-03-12T10:41:47.286Z,27.80
2023-03-12T10:44:21.639Z,30.15
2023-03-12T10:47:18.846Z,29.70
2023-03-12T10:49:45.304Z,30.63
2023-03-12T10:52:20.257Z,28.40
2023-03-12T10:54:57.853Z,28.42
2023-03-12T10:57:40.934Z,26.80
2023-03-12T11:00:17.707Z,29.15
2023-03-12T11:02:55.026Z,23.75
2023-03-12T11:05:38.090Z,30.48
2023-03-12T11:08:20.800Z,25.02
2023-03-12T11:10:48.211Z,28.70
2023-03-12T11:13:50.154Z,26.58
2023-03-12T11:16:16.664Z,25.88
2023-03-12T11:19:05.940Z,26.88
2023-03-12T11:21:37.671Z,21.60
2023-03-12T11:24:16.876Z,26.33
2023-03-12T11:27:12.412Z,27.75
2023-03-12T11:29:43.169Z,21.00
2023-03-12T11:32:24.019Z,19.60
2023-03-12T11:34:50.902Z,28.08
2023-03-12T11:37:50.249Z,20.65
2023-03-12T11:40:44.713Z,20.02
2023-03-12T11:46:23.741Z,24.17
2023-03-12T11:49:36.144Z,21.83
2023-03-12T11:52:05.589Z,19.90
2023-03-12T11:54:50.525Z,23.25
2023-03-12T11:57:41.983Z,20.92
2023-03-12T12:00:14.156Z,20.33
2023-03-12T12:02:43.309Z,20.48
2023-03-12T12:05:48.200Z,23.30
2023-03-12T12:08:23.726Z,22.67
2023-03-12T12:11:11.057Z,22.90
2023-03-12T12:13:40.715Z,17.85
2023-03-12T12:16:47.695Z,17.02
2023-03-12T12:19:45.074Z,20.77
2023-03-12T12:22:44.444Z,14.68
2023-03-12T12:25:35.847Z,18.52
2023-03-12T12:28:23.620Z,21.20
2023-03-12T12:31:23.374Z,20.83
2023-03-12T12:33:55.337Z,24.80
2023-03-12T12:36:25.658Z,18.48
2023-03-12T12:39:14.678Z,21.02
2023-03-12T12:41:52.979Z,22.35
2023-03-12T12:44:33.232Z,19.20
2023-03-12T12:47:03.858Z,18.40
2023-03-12T12:49:44.090Z,25.67
2023-03-12T12:52:18.932Z,19.30
2023-03-12T12:54:58.386Z,22.45
2023-03-12T12:57:50.002Z,20.20
2023-03-12T13:00:38.214Z,22.92
2023-03-12T13:03:13.008Z,27.35
2023-03-12T13:06:01.741Z,24.40
2023-03-12T13:08:47.731Z,24.70
2023-03-12T13:11:30.545Z,27.83
2023-03-12T13:14:03.591Z,23.02
2023-03-12T13:16:44.693Z,19.08
2023-03-12T13:19:14.317Z,20.58
2023-03-12T13:22:14.954Z,14.90
2023-03-12T13:25:12.760Z,28.33
2023-03-12T13:27:45.096Z,23.58
2023-03-12T13:30:33.351Z,20.10
2023-03-12T13:32:59.833Z,21.05
2023-03-12T13:35:28.108Z,24.27
2023-03-12T13:37:54.512Z,20.00
2023-03-12T13:40:31.803Z,23.15
2023-03-12T13:43:10.045Z,15.27
2023-03-12T13:45:45.252Z,23.95
2023-03-12T13:48:16.567Z,20.35
2023-03-12T13:50:55.710Z,22.73
2023-03-12T13:53:26.399Z,18.23
2023-03-12T13:56:15.403Z,19.08
2023-03-12T13:58:54.859Z,22.58
2023-03-12T14:01:24.861Z,19.02
2023-03-12T14:03:57.127Z,21.95
2023-03-12T14:06:31.102Z,18.23
2023-03-12T14:08:57.887Z,17.13
2023-03-12T14:11:27.008Z,18.15
2023-03-12T14:13:59.365Z,15.80
2023-03-12T14:16:38.162Z,16.75
2023-03-12T14:19:05.270Z,11.38
2023-03-12T14:21:39.973Z,15.52
2023-03-12T14:24:08.420Z,15.18
2023-03-12T14:26:40.299Z,15.82
2023-03-12T14:29:29.219Z,19.20
2023-03-12T14:32:01.971Z,36.08
2023-03-12T14:34:38.493Z,21.48
2023-03-12T14:37:33.595Z,17.77
2023-03-12T14:40:21.998Z,14.45
2023-03-12T14:42:48.610Z,17.05
2023-03-12T14:45:20.144Z,15.65
2023-03-12T14:47:57.779Z,13.38
2023-03-12T14:50:26.575Z,9.77
2023-03-12T14:52:53.575Z,19.38
2023-03-12T14:55:24.454Z,11.18
2023-03-12T14:58:06.641Z,14.10
2023-03-12T15:00:36.704Z,13.65
2023-03-12T15:03:12.244Z,14.00
2023-03-12T15:05:38.759Z,19.25
2023-03-12T15:08:05.969Z,17.00
2023-03-12T15:10:32.560Z,16.02
2023-03-12T15:13:05.720Z,14.15
2023-03-12T15:15:43.958Z,15.98
2023-03-12T15:18:18.292Z,17.17
2023-03-12T15:20:49.320Z,21.88
2023-03-12T15:23:21.860Z,14.77
2023-03-12T15:26:09.430Z,18.77
2023-03-12T15:28:42.618Z,19.27
2023-03-12T15:31:15.852Z,16.20
2023-03-12T15:33:45.254Z,20.55
2023-03-12T15:36:15.038Z,19.52
2023-03-12T15:38:52.334Z,28.23
2023-03-12T15:41:26.503Z,14.30
2023-03-12T15:44:01.081Z,17.95
2023-03-12T15:46:28.675Z,11.63
2023-03-12T15:48:59.067Z,19.42
2023-03-12T15:51:33.818Z,22.27
2023-03-12T15:54:02.689Z,17.70
2023-03-12T15:56:32.360Z,14.82
2023-03-12T15:59:04.834Z,16.35
2023-03-12T16:01:44.911Z,17.90
2023-03-12T16:04:18.252Z,13.82
2023-03-12T16:06:46.582Z,19.98
2023-03-12T16:09:18.395Z,15.68
2023-03-12T16:11:45.066Z,17.05
2023-03-12T16:14:28.433Z,13.93
2023-03-12T16:16:55.018Z,14.57
2023-03-12T16:19:29.314Z,14.38
2023-03-12T16:21:55.927Z,19.88
2023-03-12T16:24:22.440Z,23.58
2023-03-12T16:26:58.721Z,17.70
2023-03-12T16:29:35.672Z,11.15
2023-03-12T16:32:10.419Z,16.23
2023-03-12T16:34:37.031Z,15.88
2023-03-12T16:37:03.507Z,23.15
2023-03-12T16:39:30.497Z,22.35
2023-03-12T16:41:56.894Z,24.73
2023-03-12T16:44:31.799Z,25.52
2023-03-12T16:46:58.253Z,16.88
2023-03-12T16:49:25.256Z,18.58
2023-03-12T16:51:57.832Z,20.10
2023-03-12T16:54:24.159Z,14.07
2023-03-12T16:56:50.510Z,21.77
2023-03-12T16:59:25.300Z,28.17
2023-03-12T17:01:51.851Z,22.20
2023-03-12T17:04:20.489Z,16.25
2023-03-12T17:06:47.004Z,17.50
2023-03-12T17:09:17.761Z,14.20
2023-03-12T17:11:44.947Z,26.75
2023-03-12T17:14:23.664Z,18.45
2023-03-12T17:16:50.680Z,19.50
2023-03-12T17:19:17.116Z,20.45
2023-03-12T17:21:44.744Z,20.45
2023-03-12T17:24:12.020Z,25.95
2023-03-12T17:26:46.046Z,19.30
2023-03-12T17:29:12.487Z,20.30
2023-03-12T17:31:38.904Z,19.00
2023-03-12T17:34:05.562Z,14.80
2023-03-12T17:36:35.925Z,14.30
2023-03-12T17:39:02.462Z,18.35
2023-03-12T17:41:32.689Z,16.48
2023-03-12T17:43:59.286Z,24.17
2023-03-12T17:46:25.765Z,16.88
2023-03-12T17:48:52.297Z,19.30
2023-03-12T17:51:18.877Z,16.08
2023-03-12T17:53:53.619Z,16.67
2023-03-12T17:56:20.129Z,17.38
2023-03-12T17:58:47.591Z,14.85
2023-03-12T18:01:15.553Z,12.95
2023-03-12T18:03:44.400Z,18.88
2023-03-12T18:06:12.980Z,14.00
2023-03-12T18:08:43.000Z,16.95
2023-03-12T18:11:10.565Z,8.45
2023-03-12T18:13:38.838Z,13.50
2023-03-12T18:16:06.532Z,12.10
2023-03-12T18:18:33.683Z,8.27
2023-03-12T18:21:00.114Z,10.88
2023-03-12T18:23:26.757Z,7.80
2023-03-12T18:25:53.479Z,6.00
2023-03-12T18:28:19.800Z,8.13
2023-03-12T18:30:50.591Z,7.40
2023-03-12T18:33:17.153Z,7.35
2023-03-12T18:35:46.602Z,5.85
2023-03-12T18:38:14.240Z,7.30
2023-03-12T18:40:41.954Z,8.63
2023-03-12T18:43:08.348Z,8.57
2023-03-12T18:45:35.015Z,9.27
2023-03-12T18:48:02.437Z,7.85
2023-03-12T18:50:30.247Z,7.65
2023-03-12T18:52:58.844Z,6.07
2023-03-12T18:55:25.256Z,4.22
2023-03-12T18:57:54.885Z,8.85
2023-03-12T19:00:28.773Z,9.50
2023-03-12T19:02:55.228Z,7.93
2023-03-12T19:05:22.354Z,7.50
2023-03-12T19:07:54.775Z,8.13
2023-03-12T19:10:24.010Z,5.35
2023-03-12T19:12:53.306Z,5.03
2023-03-12T19:15:23.587Z,4.40
2023-03-12T19:17:50.202Z,8.38
2023-03-12T19:20:24.018Z,5.78
2023-03-12T19:22:50.404Z,11.50
2023-03-12T19:25:18.025Z,6.80
2023-03-12T19:27:44.414Z,8.70
2023-03-12T19:30:11.416Z,5.70
2023-03-12T19:32:43.843Z,5.78
2023-03-12T19:35:13.139Z,5.50
2023-03-12T19:37:40.072Z,11.55
2023-03-12T19:40:07.228Z,11.95
2023-03-12T19:42:40.891Z,9.18
2023-03-12T19:45:08.063Z,7.15
2023-03-12T19:47:35.990Z,10.63
2023-03-12T19:50:02.410Z,13.82
2023-03-12T19:52:29.058Z,8.45
2023-03-12T19:55:04.833Z,13.63
2023-03-12T19:57:40.145Z,9.18
2023-03-12T20:00:08.099Z,12.23
2023-03-12T20:02:34.683Z,14.98
2023-03-12T20:05:02.317Z,15.20
2023-03-12T20:07:28.699Z,13.55
2023-03-12T20:09:55.168Z,15.48
2023-03-12T20:12:21.541Z,11.27
2023-03-12T20:14:52.135Z,18.05
2023-03-12T20:19:45.034Z,19.67
2023-03-12T20:22:11.390Z,15.40
2023-03-12T20:24:37.826Z,16.35
2023-03-12T20:27:04.443Z,19.00
2023-03-12T20:29:30.982Z,22.20
2023-03-12T20:31:57.391Z,15.90
2023-03-12T20:34:23.900Z,12.68
2023-03-12T20:36:50.389Z,13.77
2023-03-12T20:39:16.836Z,15.80
2023-03-12T20:41:43.242Z,19.92
2023-03-12T20:44:09.594Z,18.83
2023-03-12T20:46:47.596Z,17.38
2023-03-12T20:49:16.433Z,17.25
2023-03-12T20:51:42.935Z,17.08
2023-03-12T20:54:23.918Z,15.23
2023-03-12T20:56:57.088Z,18.25
2023-03-12T20:59:23.832Z,16.25
2023-03-12T21:01:50.213Z,16.42
2023-03-12T21:04:16.603Z,17.92
2023-03-12T21:06:45.310Z,17.08
2023-03-12T21:09:13.532Z,17.25
2023-03-12T21:11:39.854Z,12.98
2023-03-12T21:14:20.895Z,14.82
2023-03-12T21:17:02.595Z,17.55
2023-03-12T21:19:30.084Z,15.38
2023-03-12T21:22:02.918Z,16.52
2023-03-12T21:24:32.592Z,14.07
2023-03-12T21:26:59.146Z,19.92
2023-03-12T21:29:28.261Z,14.70
2023-03-12T21:31:54.928Z,15.73
2023-03-12T21:34:23.960Z,18.00
2023-03-12T21:36:54.104Z,16.92
2023-03-12T21:39:21.190Z,18.45
2023-03-12T21:41:49.665Z,17.77
2023-03-12T21:44:16.817Z,13.32
2023-03-12T21:46:44.952Z,9.68
2023-03-12T21:49:13.263Z,14.80
2023-03-12T21:51:39.794Z,18.95
2023-03-12T21:54:10.986Z,18.77
2023-03-12T21:56:37.764Z,17.60
2023-03-12T21:59:08.920Z,15.02
2023-03-12T22:01:35.647Z,20.83
2023-03-12T22:04:02.207Z,15.77
2023-03-12T22:06:29.886Z,18.45
2023-03-12T22:08:56.252Z,20.27
2023-03-12T22:11:25.657Z,20.17
2023-03-12T22:13:54.625Z,18.08
2023-03-12T22:16:28.726Z,18.90
2023-03-12T22:19:02.554Z,24.50
2023-03-12T22:21:30.945Z,17.60
2023-03-12T22:23:57.529Z,21.48
2023-03-12T22:26:24.997Z,25.35
2023-03-12T22:28:53.747Z,18.92
2023-03-12T22:31:24.429Z,15.90
2023-03-12T22:33:53.776Z,22.02
2023-03-12T22:36:24.078Z,24.35
2023-03-12T22:38:53.075Z,20.13
2023-03-12T22:41:22.495Z,20.63
2023-03-12T22:43:55.712Z,15.48
2023-03-12T22:46:25.581Z,21.70
2023-03-12T22:48:54.776Z,14.82
2023-03-12T22:51:21.657Z,18.90
2023-03-12T22:53:48.032Z,14.05
2023-03-12T22:56:16.629Z,16.67
2023-03-12T22:58:43.054Z,16.60
2023-03-12T23:01:12.375Z,18.95
2023-03-12T23:03:40.883Z,14.73
2023-03-12T23:06:15.667Z,13.93
2023-03-12T23:08:47.121Z,13.25
2023-03-12T23:11:17.021Z,12.63
2023-03-12T23:13:44.884Z,13.60
2023-03-12T23:16:19.927Z,19.35
2023-03-12T23:18:47.496Z,19.65
2023-03-12T23:21:22.159Z,20.90
2023-03-12T23:23:51.537Z,17.08
2023-03-12T23:26:27.579Z,15.85
2023-03-12T23:28:59.802Z,12.38
2023-03-12T23:31:28.253Z,12.43
2023-03-12T23:33:55.593Z,16.98
2023-03-12T23:36:24.588Z,17.92
2023-03-12T23:38:51.313Z,19.70
2023-03-12T23:41:26.643Z,18.48
2023-03-12T23:43:53.327Z,12.38
2023-03-12T23:46:23.273Z,19.35
2023-03-12T23:48:50.695Z,19.00
2023-03-12T23:51:31.254Z,17.00
2023-03-12T23:54:03.000Z,14.20
2023-03-12T23:56:35.130Z,18.10
2023-03-12T23:59:02.328Z,14.27
